createdAt,value
2023-05-06T00:00:28.552Z,10.49
2023-05-06T00:03:12.612Z,10.49
2023-05-06T00:05:41.947Z,10.53
2023-05-06T00:08:10.010Z,10.57
2023-05-06T00:10:37.972Z,10.59
2023-05-06T00:13:06.163Z,10.56
2023-05-06T00:15:35.120Z,10.52
2023-05-06T00:18:03.276Z,10.52
2023-05-06T00:20:31.483Z,10.52
2023-05-06T00:22:59.597Z,10.52
2023-05-06T00:25:27.617Z,10.46
2023-05-06T00:27:55.625Z,10.36
2023-05-06T00:30:25.649Z,10.31
2023-05-06T00:32:56.261Z,10.27
2023-05-06T00:35:24.272Z,10.23
2023-05-06T00:37:58.570Z,10.18
2023-05-06T00:40:26.538Z,10.12
2023-05-06T00:42:54.552Z,10.07
2023-05-06T00:45:22.649Z,10.05
2023-05-06T00:47:51.449Z,10.03
2023-05-06T00:50:19.863Z,9.99
2023-05-06T00:52:48.200Z,9.92
2023-05-06T00:55:16.968Z,9.86
2023-05-06T00:57:44.978Z,9.82
2023-05-06T01:00:13.365Z,9.77
2023-05-06T01:02:46.867Z,9.72
2023-05-06T01:05:17.886Z,9.66
2023-05-06T01:08:06.829Z,9.61
2023-05-06T01:10:53.521Z,9.56
2023-05-06T01:13:35.915Z,9.51
2023-05-06T01:16:07.268Z,9.48
2023-05-06T01:18:38.426Z,9.45
2023-05-06T01:21:07.850Z,9.41
2023-05-06T01:23:57.816Z,9.39
2023-05-06T01:26:26.937Z,9.36
2023-05-06T01:28:55.837Z,9.32
2023-05-06T01:31:25.734Z,9.28
2023-05-06T01:34:14.816Z,9.23
2023-05-06T01:37:02.781Z,9.19
2023-05-06T01:39:33.195Z,9.15
2023-05-06T01:42:02.757Z,9.12
2023-05-06T01:44:33.889Z,9.09
2023-05-06T01:47:03.459Z,9.08
2023-05-06T01:49:32.015Z,9.09
2023-05-06T01:52:00.027Z,9.09
2023-05-06T01:54:28.010Z,9.08
2023-05-06T01:56:55.964Z,9.09
2023-05-06T01:59:24.092Z,9.10
2023-05-06T02:01:53.225Z,9.09
2023-05-06T02:04:21.146Z,9.08
2023-05-06T02:06:49.348Z,9.09
2023-05-06T02:09:18.540Z,9.10
2023-05-06T02:11:52.537Z,9.10
2023-05-06T02:14:20.675Z,9.08
2023-05-06T02:16:49.163Z,9.09
2023-05-06T02:19:17.125Z,9.11
2023-05-06T02:21:45.050Z,9.12
2023-05-06T02:24:13.180Z,9.11
2023-05-06T02:26:41.216Z,9.13
2023-05-06T02:29:29.193Z,9.18
2023-05-06T02:31:57.719Z,9.24
2023-05-06T02:34:26.071Z,9.26
2023-05-06T02:36:54.307Z,9.28
2023-05-06T02:39:24.498Z,9.28
2023-05-06T02:41:52.467Z,9.27
2023-05-06T02:44:20.536Z,9.26
2023-05-06T02:46:48.531Z,9.25
2023-05-06T02:49:16.571Z,9.24
2023-05-06T02:51:44.557Z,9.23
2023-05-06T02:54:12.563Z,9.21
2023-05-06T02:56:43.232Z,9.18
2023-05-06T02:59:11.240Z,9.15
2023-05-06T03:01:39.285Z,9.10
2023-05-06T03:04:07.330Z,9.06
2023-05-06T03:06:35.571Z,9.01
2023-05-06T03:09:05.122Z,8.95
2023-05-06T03:11:33.479Z,8.89
2023-05-06T03:14:04.939Z,8.85
2023-05-06T03:16:33.725Z,8.81
2023-05-06T03:19:03.938Z,8.76
2023-05-06T03:21:33.390Z,8.73
2023-05-06T03:24:01.997Z,8.69
2023-05-06T03:26:31.373Z,8.66
2023-05-06T03:28:59.938Z,8.63
2023-05-06T03:31:28.311Z,8.61
2023-05-06T03:33:56.858Z,8.59
2023-05-06T03:36:25.390Z,8.58
2023-05-06T03:38:55.220Z,8.57
2023-05-06T03:41:43.612Z,8.57
2023-05-06T03:44:11.626Z,8.58
2023-05-06T03:46:41.799Z,8.59
2023-05-06T03:49:10.302Z,8.61
2023-05-06T03:51:39.342Z,8.62
2023-05-06T03:54:07.381Z,8.64
2023-05-06T03:56:36.295Z,8.66
2023-05-06T03:59:05.010Z,8.68
2023-05-06T04:01:32.941Z,8.71
2023-05-06T04:04:01.396Z,8.75
2023-05-06T04:06:29.445Z,8.79
2023-05-06T04:08:57.490Z,8.85
2023-05-06T04:11:26.667Z,8.89
2023-05-06T04:13:56.536Z,8.94
2023-05-06T04:16:24.974Z,9.00
2023-05-06T04:18:53.136Z,9.08
2023-05-06T04:21:21.157Z,9.16
2023-05-06T04:23:54.696Z,9.27
2023-05-06T04:26:25.028Z,9.41
2023-05-06T04:28:53.103Z,9.54
2023-05-06T04:31:21.558Z,9.65
2023-05-06T04:33:53.605Z,9.76
2023-05-06T04:36:23.961Z,9.87
2023-05-06T04:39:10.686Z,9.99
2023-05-06T04:41:38.941Z,10.09
2023-05-06T04:44:08.033Z,10.20
2023-05-06T04:46:37.115Z,10.36
2023-05-06T04:49:05.204Z,10.52
2023-05-06T04:51:33.275Z,10.65
2023-05-06T04:54:02.249Z,10.79
2023-05-06T04:56:30.391Z,10.93
2023-05-06T04:58:58.318Z,11.03
2023-05-06T05:01:26.449Z,11.13
2023-05-06T05:03:54.809Z,11.22
2023-05-06T05:06:22.966Z,11.26
2023-05-06T05:08:51.449Z,11.32
2023-05-06T05:11:19.790Z,11.42
2023-05-06T05:14:07.643Z,11.53
2023-05-06T05:16:35.829Z,11.62
2023-05-06T05:19:04.390Z,11.67
2023-05-06T05:21:33.706Z,11.73
2023-05-06T05:24:01.860Z,11.80
2023-05-06T05:26:30.389Z,11.86
2023-05-06T05:28:59.387Z,11.89
2023-05-06T05:31:27.583Z,11.92
2023-05-06T05:33:56.638Z,11.93
2023-05-06T05:36:24.895Z,11.98
2023-05-06T05:38:54.695Z,12.05
2023-05-06T05:41:24.010Z,12.13
2023-05-06T05:43:52.426Z,12.21
2023-05-06T05:46:20.708Z,12.25
2023-05-06T05:48:48.889Z,12.31
2023-05-06T05:51:18.089Z,12.35
2023-05-06T05:53:46.518Z,12.34
2023-05-06T05:56:15.443Z,12.36
2023-05-06T05:58:43.366Z,12.40
2023-05-06T06:01:11.611Z,12.48
2023-05-06T06:03:39.897Z,12.55
2023-05-06T06:06:09.414Z,12.63
2023-05-06T06:08:37.821Z,12.69
2023-05-06T06:11:07.374Z,12.74
2023-05-06T06:13:39.339Z,12.82
2023-05-06T06:16:07.433Z,12.93
2023-05-06T06:18:35.485Z,13.05
2023-05-06T06:21:04.038Z,13.17
2023-05-06T06:23:31.938Z,13.30
2023-05-06T06:26:02.445Z,13.43
2023-05-06T06:28:31.551Z,13.56
2023-05-06T06:31:00.272Z,13.68
2023-05-06T06:33:28.218Z,13.79
2023-05-06T06:35:57.274Z,13.89
2023-05-06T06:38:25.924Z,13.96
2023-05-06T06:40:54.774Z,14.02
2023-05-06T06:43:24.835Z,14.09
2023-05-06T06:45:59.356Z,14.16
2023-05-06T06:48:27.211Z,14.28
2023-05-06T06:50:55.634Z,14.43
2023-05-06T06:53:24.036Z,14.61
2023-05-06T06:55:52.220Z,14.77
2023-05-06T06:58:20.847Z,14.95
2023-05-06T07:00:49.179Z,15.11
2023-05-06T07:03:19.608Z,15.26
2023-05-06T07:06:09.379Z,15.41
2023-05-06T07:08:37.441Z,15.58
2023-05-06T07:11:06.360Z,15.73
2023-05-06T07:13:34.605Z,15.89
2023-05-06T07:16:03.249Z,16.05
2023-05-06T07:18:31.251Z,16.17
2023-05-06T07:20:59.438Z,16.27
2023-05-06T07:23:28.633Z,16.37
2023-05-06T07:25:59.063Z,16.51
2023-05-06T07:28:27.212Z,16.62
2023-05-06T07:30:55.417Z,16.72
2023-05-06T07:33:24.166Z,16.86
2023-05-06T07:35:54.481Z,16.95
2023-05-06T07:38:23.545Z,17.08
2023-05-06T07:40:52.048Z,17.25
2023-05-06T07:43:42.154Z,17.43
2023-05-06T07:46:30.355Z,17.62
2023-05-06T07:48:59.244Z,17.79
2023-05-06T07:51:47.267Z,17.93
2023-05-06T07:54:16.121Z,18.04
2023-05-06T07:56:46.621Z,18.13
2023-05-06T07:59:16.149Z,18.28
2023-05-06T08:01:44.628Z,18.44
2023-05-06T08:04:12.945Z,18.50
2023-05-06T08:06:41.462Z,18.53
2023-05-06T08:09:11.396Z,18.63
2023-05-06T08:11:41.168Z,18.68
2023-05-06T08:14:09.256Z,18.73
2023-05-06T08:16:57.298Z,18.83
2023-05-06T08:19:45.300Z,18.90
2023-05-06T08:22:33.520Z,18.97
2023-05-06T08:25:01.907Z,19.01
2023-05-06T08:27:49.965Z,19.08
2023-05-06T08:30:18.080Z,19.11
2023-05-06T08:32:46.790Z,19.13
2023-05-06T08:35:14.781Z,19.17
2023-05-06T08:37:42.772Z,19.25
2023-05-06T08:40:19.433Z,19.34
2023-05-06T08:42:48.905Z,19.42
2023-05-06T08:45:17.824Z,19.49
2023-05-06T08:47:48.840Z,19.58
2023-05-06T08:50:16.910Z,19.68
2023-05-06T08:52:45.227Z,19.77
2023-05-06T08:55:14.525Z,19.88
2023-05-06T08:58:03.463Z,19.95
2023-05-06T09:00:31.992Z,20.00
2023-05-06T09:03:00.026Z,20.03
2023-05-06T09:05:28.923Z,20.10
2023-05-06T09:07:57.149Z,20.15
2023-05-06T09:10:32.656Z,20.24
2023-05-06T09:13:00.805Z,20.36
2023-05-06T09:15:40.623Z,20.43
2023-05-06T09:18:08.908Z,20.50
2023-05-06T09:20:42.543Z,20.55
2023-05-06T09:23:12.158Z,20.62
2023-05-06T09:25:41.040Z,20.69
2023-05-06T09:28:12.505Z,20.77
2023-05-06T09:30:41.822Z,20.80
2023-05-06T09:33:10.875Z,20.87
2023-05-06T09:35:40.043Z,20.89
2023-05-06T09:38:08.740Z,20.87
2023-05-06T09:40:37.694Z,20.83
2023-05-06T09:43:06.270Z,20.87
2023-05-06T09:45:34.224Z,20.92
2023-05-06T09:48:02.447Z,20.98
2023-05-06T09:50:30.632Z,21.07
2023-05-06T09:53:00.562Z,21.19
2023-05-06T09:55:29.608Z,21.28
2023-05-06T09:57:59.394Z,21.34
2023-05-06T10:00:30.091Z,21.33
2023-05-06T10:02:59.085Z,21.32
2023-05-06T10:05:29.000Z,21.33
2023-05-06T10:07:58.315Z,21.35
2023-05-06T10:10:28.450Z,21.40
2023-05-06T10:12:56.600Z,21.44
2023-05-06T10:15:26.193Z,21.46
2023-05-06T10:17:55.353Z,21.54
2023-05-06T10:20:25.099Z,21.66
2023-05-06T10:23:06.421Z,21.77
2023-05-06T10:25:39.198Z,21.88
2023-05-06T10:28:13.362Z,22.00
2023-05-06T10:30:46.076Z,22.06
2023-05-06T10:33:16.155Z,22.04
2023-05-06T10:35:47.099Z,22.13
2023-05-06T10:38:33.148Z,22.29
2023-05-06T10:41:01.938Z,22.45
2023-05-06T10:43:34.271Z,22.59
2023-05-06T10:46:09.430Z,22.66
2023-05-06T10:48:39.310Z,22.70
2023-05-06T10:51:19.798Z,22.79
2023-05-06T10:54:15.824Z,22.71
2023-05-06T10:56:49.951Z,22.51
2023-05-06T10:59:23.791Z,22.57
2023-05-06T11:01:57.474Z,22.90
2023-05-06T11:04:25.505Z,23.21
2023-05-06T11:06:54.042Z,23.33
2023-05-06T11:09:27.947Z,23.45
2023-05-06T11:12:04.094Z,23.52
2023-05-06T11:14:38.357Z,23.61
2023-05-06T11:17:09.078Z,23.57
2023-05-06T11:19:38.774Z,23.46
2023-05-06T11:22:07.474Z,23.48
2023-05-06T11:24:40.921Z,23.59
2023-05-06T11:27:10.558Z,23.65
2023-05-06T11:29:39.224Z,23.68
2023-05-06T11:32:29.062Z,23.81
2023-05-06T11:34:57.205Z,23.87
2023-05-06T11:37:29.812Z,23.97
2023-05-06T11:39:57.768Z,24.11
2023-05-06T11:42:28.239Z,24.16
2023-05-06T11:45:02.030Z,24.18
2023-05-06T11:47:30.031Z,24.17
2023-05-06T11:49:59.127Z,24.02
2023-05-06T11:52:27.203Z,23.96
2023-05-06T11:54:55.254Z,24.09
2023-05-06T11:57:23.237Z,24.13
2023-05-06T11:59:55.356Z,24.06
2023-05-06T12:02:23.330Z,24.02
2023-05-06T12:04:52.852Z,23.95
2023-05-06T12:07:21.005Z,23.92
2023-05-06T12:09:50.105Z,23.92
2023-05-06T12:12:21.802Z,23.97
2023-05-06T12:14:53.171Z,23.94
2023-05-06T12:17:21.331Z,23.91
2023-05-06T12:19:49.291Z,23.86
2023-05-06T12:22:20.035Z,23.73
2023-05-06T12:24:48.898Z,23.66
2023-05-06T12:27:36.245Z,23.58
2023-05-06T12:30:04.959Z,23.52
2023-05-06T12:32:33.228Z,23.53
2023-05-06T12:35:07.720Z,23.54
2023-05-06T12:37:35.859Z,23.43
2023-05-06T12:40:23.914Z,23.38
2023-05-06T12:43:15.355Z,23.37
2023-05-06T12:45:45.884Z,23.31
2023-05-06T12:48:16.855Z,23.12
2023-05-06T12:50:45.265Z,23.01
2023-05-06T12:53:13.503Z,23.01
2023-05-06T12:55:42.386Z,23.15
2023-05-06T12:58:19.175Z,23.31
2023-05-06T13:00:47.555Z,23.42
2023-05-06T13:03:15.984Z,23.53
2023-05-06T13:05:44.018Z,23.56
2023-05-06T13:08:12.266Z,23.51
2023-05-06T13:10:40.222Z,23.44
2023-05-06T13:13:08.306Z,23.40
2023-05-06T13:15:36.389Z,23.36
2023-05-06T13:18:24.474Z,23.30
2023-05-06T13:20:52.458Z,23.22
2023-05-06T13:23:20.511Z,23.17
2023-05-06T13:26:02.852Z,23.08
2023-05-06T13:28:34.583Z,23.02
2023-05-06T13:31:02.820Z,22.94
2023-05-06T13:33:31.384Z,22.85
2023-05-06T13:35:59.391Z,22.76
2023-05-06T13:38:27.603Z,22.73
2023-05-06T13:40:55.664Z,22.68
2023-05-06T13:43:26.693Z,22.65
2023-05-06T13:45:54.910Z,22.72
2023-05-06T13:48:22.955Z,22.69
2023-05-06T13:50:51.042Z,22.63
2023-05-06T13:53:19.957Z,22.60
2023-05-06T13:55:48.031Z,22.57
2023-05-06T13:58:17.173Z,22.51
2023-05-06T14:00:45.312Z,22.44
2023-05-06T14:03:13.860Z,22.40
2023-05-06T14:05:41.902Z,22.38
2023-05-06T14:08:10.481Z,22.37
2023-05-06T14:10:38.470Z,22.35
2023-05-06T14:13:07.279Z,22.35
2023-05-06T14:15:35.419Z,22.36
2023-05-06T14:18:04.535Z,22.32
2023-05-06T14:20:32.589Z,22.29
2023-05-06T14:23:00.592Z,22.25
2023-05-06T14:25:28.615Z,22.18
2023-05-06T14:27:56.620Z,22.11
2023-05-06T14:30:25.834Z,22.03
2023-05-06T14:32:54.291Z,21.93
2023-05-06T14:35:22.521Z,21.83
2023-05-06T14:37:50.604Z,21.72
2023-05-06T14:40:18.746Z,21.63
2023-05-06T14:42:47.060Z,21.53
2023-05-06T14:45:15.993Z,21.43
2023-05-06T14:47:44.382Z,21.36
2023-05-06T14:50:13.133Z,21.31
2023-05-06T14:52:42.149Z,21.27
2023-05-06T14:55:11.814Z,21.24
2023-05-06T14:57:40.067Z,21.22
2023-05-06T15:00:12.745Z,21.20
2023-05-06T15:02:41.069Z,21.18
2023-05-06T15:05:10.494Z,21.11
2023-05-06T15:07:38.720Z,21.04
2023-05-06T15:10:07.004Z,20.98
2023-05-06T15:12:36.423Z,20.94
2023-05-06T15:15:05.555Z,20.89
2023-05-06T15:17:33.700Z,20.86
2023-05-06T15:20:01.972Z,20.82
2023-05-06T15:22:30.173Z,20.77
2023-05-06T15:24:58.155Z,20.72
2023-05-06T15:27:26.179Z,20.67
2023-05-06T15:29:54.165Z,20.63
2023-05-06T15:32:22.157Z,20.60
2023-05-06T15:34:50.128Z,20.58
2023-05-06T15:37:19.421Z,20.54
2023-05-06T15:39:48.046Z,20.50
2023-05-06T15:42:56.000Z,20.45
2023-05-06T15:45:23.967Z,20.40
2023-05-06T15:47:52.032Z,20.35
2023-05-06T15:50:32.863Z,20.29
2023-05-06T15:53:02.957Z,20.26
2023-05-06T15:55:35.197Z,20.23
2023-05-06T15:58:09.428Z,20.19
2023-05-06T16:00:37.537Z,20.17
2023-05-06T16:03:08.060Z,20.16
2023-05-06T16:05:59.472Z,20.15
2023-05-06T16:08:27.444Z,20.16
2023-05-06T16:10:55.483Z,20.20
2023-05-06T16:13:23.413Z,20.27
2023-05-06T16:15:51.899Z,20.31
2023-05-06T16:18:19.831Z,20.33
2023-05-06T16:20:47.858Z,20.36
2023-05-06T16:23:16.386Z,20.38
2023-05-06T16:25:44.308Z,20.39
2023-05-06T16:28:12.334Z,20.41
2023-05-06T16:30:40.786Z,20.41
2023-05-06T16:33:08.788Z,20.39
2023-05-06T16:35:36.945Z,20.33
2023-05-06T16:38:04.981Z,20.28
2023-05-06T16:40:40.207Z,20.25
2023-05-06T16:43:09.665Z,20.22
2023-05-06T16:45:39.689Z,20.20
2023-05-06T16:48:07.826Z,20.17
2023-05-06T16:50:35.843Z,20.10
2023-05-06T16:53:03.857Z,20.04
2023-05-06T16:55:31.826Z,20.00
2023-05-06T16:58:00.920Z,19.95
2023-05-06T17:00:29.142Z,19.91
2023-05-06T17:02:57.736Z,19.86
2023-05-06T17:05:27.097Z,19.80
2023-05-06T17:07:55.980Z,19.73
2023-05-06T17:10:29.205Z,19.68
2023-05-06T17:12:57.563Z,19.62
2023-05-06T17:15:25.798Z,19.55
2023-05-06T17:17:53.996Z,19.50
2023-05-06T17:20:23.734Z,19.44
2023-05-06T17:22:51.883Z,19.39
2023-05-06T17:25:19.912Z,19.34
2023-05-06T17:27:47.770Z,19.30
2023-05-06T17:30:15.801Z,19.25
2023-05-06T17:32:43.949Z,19.19
2023-05-06T17:35:12.297Z,19.13
2023-05-06T17:37:41.055Z,19.07
2023-05-06T17:40:09.241Z,19.01
2023-05-06T17:42:37.203Z,18.94
2023-05-06T17:45:05.896Z,18.86
2023-05-06T17:47:34.322Z,18.75
2023-05-06T17:50:02.252Z,18.63
2023-05-06T17:52:30.621Z,18.55
2023-05-06T17:55:14.727Z,18.45
2023-05-06T17:57:43.976Z,18.31
2023-05-06T18:00:12.541Z,18.20
2023-05-06T18:02:43.585Z,18.10
2023-05-06T18:05:12.062Z,18.01
2023-05-06T18:07:41.242Z,17.93
2023-05-06T18:10:10.972Z,17.82
2023-05-06T18:12:39.080Z,17.70
2023-05-06T18:15:08.882Z,17.58
2023-05-06T18:17:37.260Z,17.49
2023-05-06T18:20:06.672Z,17.42
2023-05-06T18:22:35.118Z,17.38
2023-05-06T18:25:04.420Z,17.34
2023-05-06T18:27:32.563Z,17.30
2023-05-06T18:30:01.078Z,17.28
2023-05-06T18:32:29.034Z,17.25
2023-05-06T18:34:57.315Z,17.23
2023-05-06T18:37:25.401Z,17.22
2023-05-06T18:39:53.536Z,17.21
2023-05-06T18:42:22.760Z,17.18
2023-05-06T18:44:50.798Z,17.16
2023-05-06T18:47:19.959Z,17.15
2023-05-06T18:49:48.713Z,17.13
2023-05-06T18:52:17.795Z,17.12
2023-05-06T18:54:46.394Z,17.11
2023-05-06T18:57:14.823Z,17.10
2023-05-06T18:59:44.865Z,17.08
2023-05-06T19:02:13.080Z,17.05
2023-05-06T19:04:41.151Z,17.03
2023-05-06T19:07:10.213Z,17.00
2023-05-06T19:09:38.617Z,16.98
2023-05-06T19:12:06.766Z,16.97
2023-05-06T19:14:34.787Z,16.95
2023-05-06T19:17:04.605Z,16.93
2023-05-06T19:19:32.748Z,16.92
2023-05-06T19:22:02.234Z,16.91
2023-05-06T19:24:31.156Z,16.90
2023-05-06T19:26:59.111Z,16.88
2023-05-06T19:29:27.250Z,16.86
2023-05-06T19:31:55.247Z,16.85
2023-05-06T19:34:23.153Z,16.84
2023-05-06T19:36:51.079Z,16.82
2023-05-06T19:39:19.034Z,16.81
2023-05-06T19:41:48.027Z,16.77
2023-05-06T19:44:15.965Z,16.75
2023-05-06T19:46:44.091Z,16.71
2023-05-06T19:49:12.249Z,16.67
2023-05-06T19:51:40.144Z,16.63
2023-05-06T19:54:08.226Z,16.59
2023-05-06T19:56:36.411Z,16.54
2023-05-06T19:59:04.301Z,16.51
2023-05-06T20:01:32.255Z,16.48
2023-05-06T20:04:00.401Z,16.43
2023-05-06T20:06:29.694Z,16.40
2023-05-06T20:08:57.549Z,16.37
2023-05-06T20:11:25.850Z,16.36
2023-05-06T20:13:53.704Z,16.32
2023-05-06T20:16:21.741Z,16.29
2023-05-06T20:18:51.575Z,16.28
2023-05-06T20:21:19.557Z,16.25
2023-05-06T20:23:47.466Z,16.22
2023-05-06T20:26:15.392Z,16.17
2023-05-06T20:28:43.547Z,16.07
2023-05-06T20:31:11.586Z,16.01
2023-05-06T20:33:39.560Z,15.95
2023-05-06T20:36:07.744Z,15.91
2023-05-06T20:38:35.599Z,15.88
2023-05-06T20:41:03.474Z,15.85
2023-05-06T20:43:32.708Z,15.82
2023-05-06T20:46:00.732Z,15.78
2023-05-06T20:48:30.705Z,15.76
2023-05-06T20:50:58.678Z,15.74
2023-05-06T20:53:27.423Z,15.73
2023-05-06T20:55:55.485Z,15.72
2023-05-06T20:58:23.617Z,15.68
2023-05-06T21:00:52.009Z,15.61
2023-05-06T21:03:20.136Z,15.54
2023-05-06T21:06:05.528Z,15.55
2023-05-06T21:08:33.903Z,15.48
2023-05-06T21:11:01.865Z,15.40
2023-05-06T21:13:29.884Z,15.36
2023-05-06T21:15:57.801Z,15.37
2023-05-06T21:18:26.020Z,15.38
2023-05-06T21:20:54.313Z,15.39
2023-05-06T21:23:22.421Z,15.38
2023-05-06T21:25:50.570Z,15.34
2023-05-06T21:28:18.564Z,15.29
2023-05-06T21:30:46.760Z,15.23
2023-05-06T21:33:14.981Z,15.15
2023-05-06T21:35:42.943Z,15.08
2023-05-06T21:38:11.366Z,14.99
2023-05-06T21:40:39.407Z,14.83
2023-05-06T21:43:07.516Z,14.69
2023-05-06T21:45:36.524Z,14.54
2023-05-06T21:48:04.845Z,14.40
2023-05-06T21:50:32.987Z,14.32
2023-05-06T21:53:01.053Z,14.26
2023-05-06T21:55:30.128Z,14.21
2023-05-06T21:57:58.203Z,14.15
2023-05-06T22:00:26.470Z,14.10
2023-05-06T22:02:54.711Z,14.05
2023-05-06T22:05:22.841Z,14.01
2023-05-06T22:07:51.688Z,13.97
2023-05-06T22:10:19.641Z,13.94
2023-05-06T22:12:47.736Z,13.88
2023-05-06T22:15:15.907Z,13.83
2023-05-06T22:17:44.053Z,13.80
2023-05-06T22:20:13.545Z,13.77
2023-05-06T22:22:41.630Z,13.76
2023-05-06T22:25:10.720Z,13.73
2023-05-06T22:27:39.017Z,13.70
2023-05-06T22:30:08.575Z,13.68
2023-05-06T22:32:36.583Z,13.65
2023-05-06T22:35:05.099Z,13.63
2023-05-06T22:37:33.147Z,13.61
2023-05-06T22:40:01.224Z,13.59
2023-05-06T22:42:29.277Z,13.57
2023-05-06T22:44:57.368Z,13.54
2023-05-06T22:47:25.382Z,13.52
2023-05-06T22:49:53.409Z,13.52
2023-05-06T22:52:21.475Z,13.50
2023-05-06T22:54:49.496Z,13.45
2023-05-06T22:57:19.361Z,13.44
2023-05-06T22:59:47.473Z,13.46
2023-05-06T23:02:15.418Z,13.49
2023-05-06T23:04:43.491Z,13.53
2023-05-06T23:07:11.435Z,13.57
2023-05-06T23:09:39.518Z,13.61
2023-05-06T23:12:07.885Z,13.64
2023-05-06T23:14:35.807Z,13.66
2023-05-06T23:17:04.051Z,13.67
2023-05-06T23:19:32.142Z,13.68
2023-05-06T23:22:00.193Z,13.69
2023-05-06T23:24:28.328Z,13.69
2023-05-06T23:26:56.548Z,13.69
2023-05-06T23:29:24.589Z,13.69
2023-05-06T23:31:52.595Z,13.68
2023-05-06T23:34:20.665Z,13.72
2023-05-06T23:36:48.749Z,13.71
2023-05-06T23:39:17.648Z,13.68
2023-05-06T23:41:45.635Z,13.65
2023-05-06T23:44:13.694Z,13.63
2023-05-06T23:46:41.804Z,13.58
2023-05-06T23:49:10.183Z,13.52
2023-05-06T23:51:38.159Z,13.45
2023-05-06T23:54:06.314Z,13.40
2023-05-06T23:56:34.404Z,13.34
2023-05-06T23:59:02.496Z,13.28
